sensor_id;sensor_type;location;lat;lon;timestamp;P1;durP1;ratioP1;P2;durP2;ratioP2
70549;SDS011;58101;48.658;2.328;2022-07-18T16:24:27;9.52;;;1.75;;
70549;SDS011;58101;48.658;2.328;2022-07-18T16:26:53;8.20;;;1.80;;
70549;SDS011;58101;48.658;2.328;2022-07-18T16:29:19;7.55;;;1.77;;
70549;SDS011;58101;48.658;2.328;2022-07-18T16:31:44;8.48;;;1.90;;
70549;SDS011;58101;48.658;2.328;2022-07-18T16:34:10;8.20;;;1.75;;
70549;SDS011;58101;48.658;2.328;2022-07-18T16:36:36;7.65;;;1.90;;
70549;SDS011;58101;48.658;2.328;2022-07-18T16:39:04;9.10;;;2.03;;
70549;SDS011;58101;48.658;2.328;2022-07-18T16:41:30;9.25;;;2.00;;
70549;SDS011;58101;48.658;2.328;2022-07-18T16:43:59;7.43;;;1.90;;
70549;SDS011;58101;48.658;2.328;2022-07-18T16:46:25;9.55;;;2.08;;
70549;SDS011;58101;48.658;2.328;2022-07-18T16:48:51;7.85;;;2.10;;
70549;SDS011;58101;48.658;2.328;2022-07-18T16:51:19;9.38;;;2.13;;
70549;SDS011;58101;48.658;2.328;2022-07-18T16:53:51;7.90;;;1.95;;
70549;SDS011;58101;48.658;2.328;2022-07-18T16:58:42;10.23;;;2.20;;
70549;SDS011;58101;48.658;2.328;2022-07-18T17:01:08;11.07;;;2.47;;
70549;SDS011;58101;48.658;2.328;2022-07-18T17:03:38;6.82;;;2.00;;
70549;SDS011;58101;48.658;2.328;2022-07-18T17:06:03;6.55;;;2.00;;
70549;SDS011;58101;48.658;2.328;2022-07-18T17:08:30;6.80;;;1.90;;
70549;SDS011;58101;48.658;2.328;2022-07-18T17:10:57;7.90;;;2.00;;
70549;SDS011;58101;48.658;2.328;2022-07-18T17:13:23;7.88;;;2.08;;
70549;SDS011;58101;48.658;2.328;2022-07-18T17:15:49;9.70;;;1.83;;
70549;SDS011;58101;48.658;2.328;2022-07-18T17:18:16;7.32;;;2.03;;
70549;SDS011;58101;48.658;2.328;2022-07-18T17:20:50;7.28;;;2.10;;
70549;SDS011;58101;48.658;2.328;2022-07-18T17:23:16;7.05;;;1.95;;
70549;SDS011;58101;48.658;2.328;2022-07-18T17:25:43;7.75;;;1.92;;
70549;SDS011;58101;48.658;2.328;2022-07-18T17:28:08;8.93;;;2.00;;
70549;SDS011;58101;48.658;2.328;2022-07-18T17:30:34;9.43;;;2.33;;
70549;SDS011;58101;48.658;2.328;2022-07-18T17:33:00;6.72;;;1.90;;
70549;SDS011;58101;48.658;2.328;2022-07-18T17:35:26;6.30;;;2.10;;
70549;SDS011;58101;48.658;2.328;2022-07-18T17:37:52;5.45;;;1.80;;
70549;SDS011;58101;48.658;2.328;2022-07-18T17:40:18;8.27;;;2.00;;
70549;SDS011;58101;48.658;2.328;2022-07-18T17:42:45;7.95;;;2.22;;
70549;SDS011;58101;48.658;2.328;2022-07-18T17:45:11;9.57;;;2.20;;
70549;SDS011;58101;48.658;2.328;2022-07-18T17:47:37;7.68;;;2.10;;
70549;SDS011;58101;48.658;2.328;2022-07-18T17:50:04;7.88;;;2.03;;
70549;SDS011;58101;48.658;2.328;2022-07-18T17:52:32;6.97;;;2.17;;
70549;SDS011;58101;48.658;2.328;2022-07-18T17:54:58;8.73;;;2.28;;
70549;SDS011;58101;48.658;2.328;2022-07-18T17:57:25;7.13;;;1.90;;
70549;SDS011;58101;48.658;2.328;2022-07-18T17:59:53;8.82;;;2.10;;
70549;SDS011;58101;48.658;2.328;2022-07-18T18:02:19;11.70;;;2.17;;
70549;SDS011;58101;48.658;2.328;2022-07-18T18:04:45;8.35;;;2.10;;
70549;SDS011;58101;48.658;2.328;2022-07-18T18:07:11;11.77;;;2.35;;
70549;SDS011;58101;48.658;2.328;2022-07-18T18:09:37;8.10;;;2.92;;
70549;SDS011;58101;48.658;2.328;2022-07-18T18:12:03;10.00;;;2.60;;
70549;SDS011;58101;48.658;2.328;2022-07-18T18:14:31;9.73;;;2.85;;
70549;SDS011;58101;48.658;2.328;2022-07-18T18:16:57;8.95;;;2.03;;
70549;SDS011;58101;48.658;2.328;2022-07-18T18:19:24;11.45;;;2.35;;
70549;SDS011;58101;48.658;2.328;2022-07-18T18:21:50;11.27;;;2.85;;
70549;SDS011;58101;48.658;2.328;2022-07-18T18:24:16;9.63;;;1.90;;
70549;SDS011;58101;48.658;2.328;2022-07-18T18:26:42;11.20;;;2.30;;
70549;SDS011;58101;48.658;2.328;2022-07-18T18:29:07;8.95;;;2.10;;
70549;SDS011;58101;48.658;2.328;2022-07-18T18:31:34;9.40;;;2.20;;
70549;SDS011;58101;48.658;2.328;2022-07-18T18:34:00;8.77;;;1.90;;
70549;SDS011;58101;48.658;2.328;2022-07-18T18:36:25;6.63;;;1.85;;
70549;SDS011;58101;48.658;2.328;2022-07-18T18:39:11;9.73;;;2.20;;
70549;SDS011;58101;48.658;2.328;2022-07-18T18:41:37;7.60;;;2.13;;
70549;SDS011;58101;48.658;2.328;2022-07-18T18:44:03;11.23;;;2.20;;
70549;SDS011;58101;48.658;2.328;2022-07-18T18:46:29;9.60;;;2.20;;
70549;SDS011;58101;48.658;2.328;2022-07-18T18:48:55;9.32;;;2.33;;
70549;SDS011;58101;48.658;2.328;2022-07-18T18:51:21;11.15;;;2.05;;
70549;SDS011;58101;48.658;2.328;2022-07-18T18:53:46;11.73;;;2.10;;
70549;SDS011;58101;48.658;2.328;2022-07-18T18:56:12;9.25;;;2.63;;
70549;SDS011;58101;48.658;2.328;2022-07-18T18:58:38;9.75;;;2.20;;
70549;SDS011;58101;48.658;2.328;2022-07-18T19:01:03;9.40;;;2.15;;
70549;SDS011;58101;48.658;2.328;2022-07-18T19:03:29;7.28;;;2.15;;
70549;SDS011;58101;48.658;2.328;2022-07-18T19:05:55;10.32;;;2.53;;
70549;SDS011;58101;48.658;2.328;2022-07-18T19:08:21;11.27;;;2.40;;
70549;SDS011;58101;48.658;2.328;2022-07-18T19:10:46;11.00;;;2.40;;
70549;SDS011;58101;48.658;2.328;2022-07-18T19:13:12;7.90;;;2.20;;
70549;SDS011;58101;48.658;2.328;2022-07-18T19:15:38;6.70;;;1.90;;
70549;SDS011;58101;48.658;2.328;2022-07-18T19:18:04;10.50;;;2.20;;
70549;SDS011;58101;48.658;2.328;2022-07-18T19:20:30;7.95;;;2.10;;
70549;SDS011;58101;48.658;2.328;2022-07-18T19:22:56;8.35;;;2.40;;
70549;SDS011;58101;48.658;2.328;2022-07-18T19:25:21;10.98;;;2.40;;
70549;SDS011;58101;48.658;2.328;2022-07-18T19:27:49;8.88;;;2.47;;
70549;SDS011;58101;48.658;2.328;2022-07-18T19:30:15;8.27;;;2.45;;
70549;SDS011;58101;48.658;2.328;2022-07-18T19:32:41;8.85;;;2.50;;
70549;SDS011;58101;48.658;2.328;2022-07-18T19:35:07;9.93;;;2.40;;
70549;SDS011;58101;48.658;2.328;2022-07-18T19:37:33;11.02;;;2.53;;
70549;SDS011;58101;48.658;2.328;2022-07-18T19:39:59;8.68;;;2.50;;
70549;SDS011;58101;48.658;2.328;2022-07-18T19:42:25;9.75;;;2.88;;
70549;SDS011;58101;48.658;2.328;2022-07-18T19:44:51;9.43;;;2.60;;
70549;SDS011;58101;48.658;2.328;2022-07-18T19:47:16;7.43;;;2.60;;
70549;SDS011;58101;48.658;2.328;2022-07-18T19:49:42;6.50;;;2.50;;
70549;SDS011;58101;48.658;2.328;2022-07-18T19:52:08;8.75;;;2.85;;
70549;SDS011;58101;48.658;2.328;2022-07-18T19:54:35;7.68;;;2.90;;
70549;SDS011;58101;48.658;2.328;2022-07-18T19:57:01;10.55;;;2.90;;
70549;SDS011;58101;48.658;2.328;2022-07-18T19:59:27;8.20;;;2.72;;
70549;SDS011;58101;48.658;2.328;2022-07-18T20:01:53;8.55;;;2.78;;
70549;SDS011;58101;48.658;2.328;2022-07-18T20:04:18;8.90;;;2.90;;
70549;SDS011;58101;48.658;2.328;2022-07-18T20:06:44;12.10;;;3.25;;
70549;SDS011;58101;48.658;2.328;2022-07-18T20:22:18;10.95;;;3.00;;
70549;SDS011;58101;48.658;2.328;2022-07-18T20:24:43;10.77;;;2.75;;
70549;SDS011;58101;48.658;2.328;2022-07-18T20:27:09;10.85;;;2.80;;
70549;SDS011;58101;48.658;2.328;2022-07-18T20:29:35;7.55;;;2.50;;
70549;SDS011;58101;48.658;2.328;2022-07-18T20:32:01;8.90;;;2.60;;
70549;SDS011;58101;48.658;2.328;2022-07-18T20:34:27;10.43;;;2.60;;
70549;SDS011;58101;48.658;2.328;2022-07-18T20:36:53;9.45;;;2.65;;
70549;SDS011;58101;48.658;2.328;2022-07-18T20:39:19;11.25;;;2.60;;
70549;SDS011;58101;48.658;2.328;2022-07-18T20:41:45;9.35;;;2.40;;
70549;SDS011;58101;48.658;2.328;2022-07-18T20:44:10;10.13;;;2.78;;
70549;SDS011;58101;48.658;2.328;2022-07-18T20:46:36;10.02;;;2.72;;
70549;SDS011;58101;48.658;2.328;2022-07-18T20:49:02;10.93;;;2.83;;
70549;SDS011;58101;48.658;2.328;2022-07-18T20:51:27;7.40;;;2.70;;
70549;SDS011;58101;48.658;2.328;2022-07-18T20:54:32;12.10;;;2.80;;
70549;SDS011;58101;48.658;2.328;2022-07-18T21:05:39;8.68;;;2.70;;
70549;SDS011;58101;48.658;2.328;2022-07-18T21:10:55;10.18;;;2.63;;
70549;SDS011;58101;48.658;2.328;2022-07-18T21:13:21;10.20;;;3.03;;
70549;SDS011;58101;48.658;2.328;2022-07-18T21:18:12;8.90;;;2.95;;
70549;SDS011;58101;48.658;2.328;2022-07-18T21:20:39;10.00;;;3.28;;
70549;SDS011;58101;48.658;2.328;2022-07-18T21:23:04;8.80;;;3.10;;
70549;SDS011;58101;48.658;2.328;2022-07-18T21:25:30;9.52;;;3.22;;
70549;SDS011;58101;48.658;2.328;2022-07-18T21:30:32;11.80;;;3.40;;
70549;SDS011;58101;48.658;2.328;2022-07-18T21:33:11;10.63;;;3.30;;
70549;SDS011;58101;48.658;2.328;2022-07-18T21:35:39;9.80;;;2.75;;
70549;SDS011;58101;48.658;2.328;2022-07-18T21:40:49;9.77;;;2.63;;
70549;SDS011;58101;48.658;2.328;2022-07-18T21:43:14;9.93;;;3.58;;
70549;SDS011;58101;48.658;2.328;2022-07-18T21:45:40;10.52;;;3.55;;
70549;SDS011;58101;48.658;2.328;2022-07-18T21:50:31;9.15;;;3.03;;
70549;SDS011;58101;48.658;2.328;2022-07-18T21:52:58;8.50;;;2.97;;
70549;SDS011;58101;48.658;2.328;2022-07-18T21:55:30;12.32;;;2.88;;
70549;SDS011;58101;48.658;2.328;2022-07-18T21:57:56;9.10;;;2.60;;
70549;SDS011;58101;48.658;2.328;2022-07-18T22:00:21;9.55;;;2.30;;
70549;SDS011;58101;48.658;2.328;2022-07-18T22:02:47;12.40;;;2.47;;
70549;SDS011;58101;48.658;2.328;2022-07-18T22:07:38;9.65;;;2.42;;
70549;SDS011;58101;48.658;2.328;2022-07-18T22:12:30;10.70;;;2.20;;
70549;SDS011;58101;48.658;2.328;2022-07-18T22:17:30;8.80;;;2.33;;
70549;SDS011;58101;48.658;2.328;2022-07-18T22:19:56;8.85;;;2.33;;
70549;SDS011;58101;48.658;2.328;2022-07-18T22:24:48;9.82;;;2.15;;
70549;SDS011;58101;48.658;2.328;2022-07-18T22:27:14;6.40;;;2.05;;
70549;SDS011;58101;48.658;2.328;2022-07-18T22:36:14;8.02;;;2.30;;
70549;SDS011;58101;48.658;2.328;2022-07-18T22:38:48;10.23;;;2.38;;
70549;SDS011;58101;48.658;2.328;2022-07-18T22:41:14;7.95;;;1.92;;
70549;SDS011;58101;48.658;2.328;2022-07-18T22:46:52;9.73;;;2.25;;
70549;SDS011;58101;48.658;2.328;2022-07-18T22:49:19;8.73;;;2.15;;
70549;SDS011;58101;48.658;2.328;2022-07-18T22:51:44;9.27;;;2.38;;
70549;SDS011;58101;48.658;2.328;2022-07-18T22:57:29;8.07;;;2.15;;
70549;SDS011;58101;48.658;2.328;2022-07-18T22:59:58;9.70;;;2.08;;
70549;SDS011;58101;48.658;2.328;2022-07-18T23:02:24;8.10;;;2.20;;
70549;SDS011;58101;48.658;2.328;2022-07-18T23:19:28;8.50;;;2.72;;
70549;SDS011;58101;48.658;2.328;2022-07-18T23:24:19;8.27;;;2.45;;
70549;SDS011;58101;48.658;2.328;2022-07-18T23:29:11;10.95;;;2.70;;
70549;SDS011;58101;48.658;2.328;2022-07-18T23:31:37;10.07;;;2.50;;
70549;SDS011;58101;48.658;2.328;2022-07-18T23:34:03;9.88;;;2.40;;
70549;SDS011;58101;48.658;2.328;2022-07-18T23:36:45;14.35;;;2.80;;
70549;SDS011;58101;48.658;2.328;2022-07-18T23:39:20;7.85;;;2.20;;
70549;SDS011;58101;48.658;2.328;2022-07-18T23:41:46;6.90;;;2.33;;
70549;SDS011;58101;48.658;2.328;2022-07-18T23:46:37;11.82;;;2.30;;
70549;SDS011;58101;48.658;2.328;2022-07-18T23:51:34;8.80;;;2.10;;
70549;SDS011;58101;48.658;2.328;2022-07-18T23:54:00;8.02;;;2.53;;
70549;SDS011;58101;48.658;2.328;2022-07-18T23:58:51;10.48;;;2.47;;
